Time;durP1;ratioP1;P1;durP2;ratioP2;P2;SDS_P1;SDS_P2;PMS_P1;PMS_P2;Temp;Humidity;BMP_temperature;BMP_pressure;BME280_temperature;BME280_humidity;BME280_pressure;Samples;Min_cycle;Max_cycle;Signal;HPM_P1;HPM_P2
2024/03/03 00:01:02;;;;;;;1999.90;999.90;;;;;;;;;;6120859;23;20448;-79
2024/03/03 00:03:29;;;;;;;1999.90;999.90;;;;;;;;;;6121254;23;20022;-80
2024/03/03 00:05:55;;;;;;;1999.90;999.90;;;;;;;;;;6120530;23;20089;-80
2024/03/03 00:08:23;;;;;;;1999.90;999.90;;;;;;;;;;6121637;23;20056;-79
2024/03/03 00:10:50;;;;;;;1999.90;999.90;;;;;;;;;;6120628;23;20041;-80
2024/03/03 00:13:16;;;;;;;1999.90;999.90;;;;;;;;;;6121169;23;20026;-80
2024/03/03 00:15:43;;;;;;;1999.90;999.90;;;;;;;;;;6120918;23;20026;-79
2024/03/03 00:18:11;;;;;;;1999.90;999.90;;;;;;;;;;6121274;23;20028;-80
2024/03/03 00:20:37;;;;;;;1999.90;999.90;;;;;;;;;;6120340;23;20330;-79
2024/03/03 00:23:04;;;;;;;1999.90;999.90;;;;;;;;;;6121038;23;20026;-79
2024/03/03 00:25:31;;;;;;;1999.90;999.90;;;;;;;;;;6121127;23;20101;-79
2024/03/03 00:27:57;;;;;;;1999.90;999.90;;;;;;;;;;6120791;23;20022;-79
2024/03/03 00:30:24;;;;;;;1999.90;999.90;;;;;;;;;;6120978;23;20018;-79
2024/03/03 00:32:50;;;;;;;1999.90;999.90;;;;;;;;;;6120428;23;20346;-79
2024/03/03 00:35:18;;;;;;;1999.90;999.90;;;;;;;;;;6121317;23;20032;-80
2024/03/03 00:37:45;;;;;;;1999.90;999.90;;;;;;;;;;6120289;23;20332;-79
2024/03/03 00:40:12;;;;;;;1999.90;999.90;;;;;;;;;;6120232;23;20026;-80
2024/03/03 00:42:39;;;;;;;1999.90;999.90;;;;;;;;;;6120240;23;20024;-79
2024/03/03 00:45:07;;;;;;;1999.90;999.90;;;;;;;;;;6120235;23;20429;-80
2024/03/03 00:47:34;;;;;;;1999.90;999.90;;;;;;;;;;6120304;23;20096;-81
2024/03/03 00:50:00;;;;;;;1999.90;999.90;;;;;;;;;;6120457;23;20089;-79
2024/03/03 00:52:29;;;;;;;1999.90;999.90;;;;;;;;;;6120086;23;20032;-80
2024/03/03 00:54:57;;;;;;;1999.90;999.90;;;;;;;;;;6120396;23;20445;-79
2024/03/03 00:57:23;;;;;;;1999.90;999.90;;;;;;;;;;6120087;23;20018;-79
2024/03/03 00:59:50;;;;;;;1999.90;999.90;;;;;;;;;;6119926;23;20085;-80
2024/03/03 01:02:16;;;;;;;1999.90;999.90;;;;;;;;;;6120232;23;20022;-79
2024/03/03 01:04:43;;;;;;;1999.90;999.90;;;;;;;;;;6120391;23;20026;-79
2024/03/03 01:07:09;;;;;;;1999.90;999.90;;;;;;;;;;6120197;23;20297;-80
2024/03/03 01:09:37;;;;;;;1999.90;999.90;;;;;;;;;;6120750;23;20436;-79
2024/03/03 01:12:04;;;;;;;1999.90;999.90;;;;;;;;;;6120766;23;20022;-79
2024/03/03 01:14:31;;;;;;;1999.90;999.90;;;;;;;;;;6120175;23;20026;-80
2024/03/03 01:16:58;;;;;;;1999.90;999.90;;;;;;;;;;6120097;23;20097;-79
2024/03/03 01:19:24;;;;;;;1999.90;999.90;;;;;;;;;;6120714;23;20109;-79
2024/03/03 01:21:51;;;;;;;1999.90;999.90;;;;;;;;;;6121094;23;20026;-80
2024/03/03 01:24:17;;;;;;;1999.90;999.90;;;;;;;;;;6120463;23;20028;-81
2024/03/03 01:26:45;;;;;;;1999.90;999.90;;;;;;;;;;6119864;23;20030;-78
2024/03/03 01:29:12;;;;;;;1999.90;999.90;;;;;;;;;;6119980;23;20022;-79
2024/03/03 01:31:41;;;;;;;1999.90;999.90;;;;;;;;;;6120081;23;20018;-79
2024/03/03 01:34:07;;;;;;;1999.90;999.90;;;;;;;;;;6120444;23;20028;-79
2024/03/03 01:36:33;;;;;;;1999.90;999.90;;;;;;;;;;6120825;23;20032;-79
2024/03/03 01:39:01;;;;;;;1999.90;999.90;;;;;;;;;;6120022;23;20442;-80
2024/03/03 01:41:28;;;;;;;1999.90;999.90;;;;;;;;;;6121043;23;20389;-79
2024/03/03 01:43:56;;;;;;;1999.90;999.90;;;;;;;;;;6120230;23;20041;-79
2024/03/03 01:46:22;;;;;;;1999.90;999.90;;;;;;;;;;6120136;23;20028;-80
2024/03/03 01:48:49;;;;;;;1999.90;999.90;;;;;;;;;;6119951;23;20457;-80
2024/03/03 01:51:17;;;;;;;1999.90;999.90;;;;;;;;;;6120564;23;20022;-79
2024/03/03 01:53:48;;;;;;;1999.90;999.90;;;;;;;;;;6120077;23;20111;-80
2024/03/03 01:56:14;;;;;;;1999.90;999.90;;;;;;;;;;6119899;23;20025;-79
2024/03/03 01:58:42;;;;;;;1999.90;999.90;;;;;;;;;;6119734;23;20028;-80
2024/03/03 02:01:11;;;;;;;1999.90;999.90;;;;;;;;;;6120078;23;20022;-79
2024/03/03 02:03:39;;;;;;;1999.90;999.90;;;;;;;;;;6121225;23;20026;-79
2024/03/03 02:06:06;;;;;;;1999.90;999.90;;;;;;;;;;6122031;23;20030;-81
2024/03/03 02:08:34;;;;;;;1999.90;999.90;;;;;;;;;;6121545;23;20029;-80
2024/03/03 02:11:01;;;;;;;1999.90;999.90;;;;;;;;;;6122028;23;20026;-78
2024/03/03 02:13:29;;;;;;;1999.90;999.90;;;;;;;;;;6121909;23;20332;-80
2024/03/03 02:15:55;;;;;;;1999.90;999.90;;;;;;;;;;6121595;23;20022;-79
2024/03/03 02:18:23;;;;;;;1999.90;999.90;;;;;;;;;;6122008;23;20030;-80
2024/03/03 02:20:50;;;;;;;1999.90;999.90;;;;;;;;;;6121924;23;20026;-80
2024/03/03 02:23:17;;;;;;;1999.90;999.90;;;;;;;;;;6120511;23;20032;-80
2024/03/03 02:25:44;;;;;;;1999.90;999.90;;;;;;;;;;6121482;23;20026;-79
2024/03/03 02:28:11;;;;;;;1999.90;999.90;;;;;;;;;;6121606;23;20026;-80
2024/03/03 02:30:38;;;;;;;1999.90;999.90;;;;;;;;;;6121374;23;20026;-79
2024/03/03 02:33:04;;;;;;;1999.90;999.90;;;;;;;;;;6121887;23;20032;-79
2024/03/03 02:35:31;;;;;;;1999.90;999.90;;;;;;;;;;6121359;23;20030;-79
2024/03/03 02:37:57;;;;;;;1999.90;999.90;;;;;;;;;;6121505;23;20026;-80
2024/03/03 02:40:25;;;;;;;1999.90;999.90;;;;;;;;;;6120720;23;20026;-79
2024/03/03 02:42:52;;;;;;;1999.90;999.90;;;;;;;;;;6121809;23;20044;-80
2024/03/03 02:45:18;;;;;;;1999.90;999.90;;;;;;;;;;6121280;23;20025;-80
2024/03/03 02:47:45;;;;;;;1999.90;999.90;;;;;;;;;;6121516;23;20021;-79
2024/03/03 02:50:12;;;;;;;1999.90;999.90;;;;;;;;;;6121194;23;20032;-79
2024/03/03 02:52:38;;;;;;;1999.90;999.90;;;;;;;;;;6121220;23;20097;-79
2024/03/03 02:55:05;;;;;;;1999.90;999.90;;;;;;;;;;6121104;23;20113;-81
2024/03/03 02:57:33;;;;;;;1999.90;999.90;;;;;;;;;;6121635;23;20036;-80
2024/03/03 02:59:59;;;;;;;1999.90;999.90;;;;;;;;;;6121858;23;20022;-80
2024/03/03 03:02:26;;;;;;;1999.90;999.90;;;;;;;;;;6121556;23;20052;-79
2024/03/03 03:04:53;;;;;;;1999.90;999.90;;;;;;;;;;6121534;23;20029;-79
2024/03/03 03:07:20;;;;;;;1999.90;999.90;;;;;;;;;;6120851;23;20078;-79
2024/03/03 03:09:47;;;;;;;1999.90;999.90;;;;;;;;;;6121247;23;20096;-80
2024/03/03 03:12:14;;;;;;;1999.90;999.90;;;;;;;;;;6121554;23;20028;-80
2024/03/03 03:14:41;;;;;;;1999.90;999.90;;;;;;;;;;6120954;23;20349;-79
2024/03/03 03:17:08;;;;;;;1999.90;999.90;;;;;;;;;;6121173;23;20022;-79
2024/03/03 03:19:35;;;;;;;1999.90;999.90;;;;;;;;;;6120710;23;20026;-80
2024/03/03 03:22:01;;;;;;;1999.90;999.90;;;;;;;;;;6121354;23;20028;-79
2024/03/03 03:24:29;;;;;;;1999.90;999.90;;;;;;;;;;6120949;23;20026;-79
2024/03/03 03:26:55;;;;;;;1999.90;999.90;;;;;;;;;;6121090;23;20348;-80
2024/03/03 03:29:22;;;;;;;1999.90;999.90;;;;;;;;;;6121035;23;20033;-79
2024/03/03 03:31:50;;;;;;;1999.90;999.90;;;;;;;;;;6121031;23;20423;-79
2024/03/03 03:34:16;;;;;;;1999.90;999.90;;;;;;;;;;6121708;23;20021;-79
2024/03/03 03:36:43;;;;;;;1999.90;999.90;;;;;;;;;;6121263;23;20114;-79
2024/03/03 03:39:12;;;;;;;1999.90;999.90;;;;;;;;;;6121261;23;20029;-80
2024/03/03 03:41:44;;;;;;;1999.90;999.90;;;;;;;;;;6121150;23;20022;-79
2024/03/03 03:44:11;;;;;;;1999.90;999.90;;;;;;;;;;6121491;23;20085;-80
2024/03/03 03:46:37;;;;;;;1999.90;999.90;;;;;;;;;;6120498;23;20026;-79
2024/03/03 03:49:05;;;;;;;1999.90;999.90;;;;;;;;;;6120945;23;20024;-79
2024/03/03 03:51:32;;;;;;;1999.90;999.90;;;;;;;;;;6121096;23;20025;-79
2024/03/03 03:53:58;;;;;;;1999.90;999.90;;;;;;;;;;6121042;23;20032;-80
2024/03/03 03:56:25;;;;;;;1999.90;999.90;;;;;;;;;;6121142;23;20025;-79
2024/03/03 03:58:51;;;;;;;1999.90;999.90;;;;;;;;;;6121386;23;20100;-79
2024/03/03 04:01:19;;;;;;;1999.90;999.90;;;;;;;;;;6120955;23;20026;-79
2024/03/03 04:03:45;;;;;;;1999.90;999.90;;;;;;;;;;6120679;23;20026;-79
2024/03/03 04:06:13;;;;;;;1999.90;999.90;;;;;;;;;;6120559;23;20061;-79
2024/03/03 04:08:40;;;;;;;1999.90;999.90;;;;;;;;;;6121017;23;20026;-78
2024/03/03 04:11:07;;;;;;;1999.90;999.90;;;;;;;;;;6121344;23;20106;-79
2024/03/03 04:13:34;;;;;;;1999.90;999.90;;;;;;;;;;6120545;23;20018;-79
2024/03/03 04:16:00;;;;;;;1999.90;999.90;;;;;;;;;;6120781;23;20028;-78
2024/03/03 04:18:27;;;;;;;1999.90;999.90;;;;;;;;;;6120482;23;20026;-79
2024/03/03 04:20:53;;;;;;;1999.90;999.90;;;;;;;;;;6121210;23;20304;-80
2024/03/03 04:23:21;;;;;;;1999.90;999.90;;;;;;;;;;6121085;23;20160;-79
2024/03/03 04:25:48;;;;;;;1999.90;999.90;;;;;;;;;;6120001;23;20022;-79
2024/03/03 04:28:14;;;;;;;1999.90;999.90;;;;;;;;;;6120547;23;20333;-79
2024/03/03 04:30:41;;;;;;;1999.90;999.90;;;;;;;;;;6120735;23;20032;-79
2024/03/03 04:33:07;;;;;;;1999.90;999.90;;;;;;;;;;6120802;23;20021;-79
2024/03/03 04:35:35;;;;;;;1999.90;999.90;;;;;;;;;;6120444;23;20022;-79
2024/03/03 04:38:02;;;;;;;1999.90;999.90;;;;;;;;;;6120990;23;20029;-80
2024/03/03 04:40:29;;;;;;;1999.90;999.90;;;;;;;;;;6120735;23;20022;-79
2024/03/03 04:42:56;;;;;;;1999.90;999.90;;;;;;;;;;6120647;23;20357;-79
2024/03/03 04:45:22;;;;;;;1999.90;999.90;;;;;;;;;;6120728;23;20022;-79
2024/03/03 04:47:50;;;;;;;1999.90;999.90;;;;;;;;;;6120305;23;20032;-80
2024/03/03 04:50:17;;;;;;;1999.90;999.90;;;;;;;;;;6120914;23;20414;-79
2024/03/03 04:52:43;;;;;;;1999.90;999.90;;;;;;;;;;6120861;23;20488;-79
2024/03/03 04:55:10;;;;;;;1999.90;999.90;;;;;;;;;;6120448;23;20028;-79
2024/03/03 04:57:38;;;;;;;1999.90;999.90;;;;;;;;;;6120173;23;20022;-79
2024/03/03 05:00:08;;;;;;;1999.90;999.90;;;;;;;;;;6120116;23;20026;-79
2024/03/03 05:02:35;;;;;;;1999.90;999.90;;;;;;;;;;6120784;23;20029;-80
2024/03/03 05:05:01;;;;;;;1999.90;999.90;;;;;;;;;;6120717;23;20021;-79
2024/03/03 05:07:28;;;;;;;1999.90;999.90;;;;;;;;;;6120291;23;20105;-80
2024/03/03 05:09:54;;;;;;;1999.90;999.90;;;;;;;;;;6119994;23;20026;-79
2024/03/03 05:12:21;;;;;;;1999.90;999.90;;;;;;;;;;6120271;23;20465;-79
2024/03/03 05:14:49;;;;;;;1999.90;999.90;;;;;;;;;;6119883;23;20029;-79
2024/03/03 05:17:15;;;;;;;1999.90;999.90;;;;;;;;;;6120470;23;20323;-79
2024/03/03 05:19:42;;;;;;;1999.90;999.90;;;;;;;;;;6120626;23;20028;-79
2024/03/03 05:22:08;;;;;;;1999.90;999.90;;;;;;;;;;6120070;23;20337;-79
2024/03/03 05:24:35;;;;;;;1999.90;999.90;;;;;;;;;;6119418;23;20106;-80
2024/03/03 05:27:03;;;;;;;1999.90;999.90;;;;;;;;;;6120198;23;20108;-80
2024/03/03 05:29:29;;;;;;;1999.90;999.90;;;;;;;;;;6119715;23;20028;-79
2024/03/03 05:31:58;;;;;;;1999.90;999.90;;;;;;;;;;6120042;23;20033;-80
2024/03/03 05:34:24;;;;;;;1999.90;999.90;;;;;;;;;;6120119;23;20021;-79
2024/03/03 05:36:50;;;;;;;1999.90;999.90;;;;;;;;;;6119903;23;20028;-79
2024/03/03 05:39:17;;;;;;;1999.90;999.90;;;;;;;;;;6121121;23;20487;-80
2024/03/03 05:41:44;;;;;;;1999.90;999.90;;;;;;;;;;6121826;23;20022;-80
2024/03/03 05:44:11;;;;;;;1999.90;999.90;;;;;;;;;;6121715;23;20032;-79
2024/03/03 05:46:38;;;;;;;1999.90;999.90;;;;;;;;;;6121933;23;20025;-81
2024/03/03 05:49:06;;;;;;;1999.90;999.90;;;;;;;;;;6121764;23;20021;-79
2024/03/03 05:51:33;;;;;;;1999.90;999.90;;;;;;;;;;6121612;23;20022;-80
2024/03/03 05:54:01;;;;;;;1999.90;999.90;;;;;;;;;;6121552;23;20028;-80
2024/03/03 05:56:27;;;;;;;1999.90;999.90;;;;;;;;;;6121460;23;20112;-79
2024/03/03 05:58:54;;;;;;;1999.90;999.90;;;;;;;;;;6121979;23;20058;-79
2024/03/03 06:01:21;;;;;;;1999.90;999.90;;;;;;;;;;6121685;23;20022;-79
2024/03/03 06:03:47;;;;;;;1999.90;999.90;;;;;;;;;;6121045;23;20480;-79
2024/03/03 06:06:15;;;;;;;1999.90;999.90;;;;;;;;;;6121914;23;20022;-80
2024/03/03 06:08:42;;;;;;;1999.90;999.90;;;;;;;;;;6121902;23;20032;-79
2024/03/03 06:11:09;;;;;;;1999.90;999.90;;;;;;;;;;6121799;23;20021;-80
2024/03/03 06:13:36;;;;;;;1999.90;999.90;;;;;;;;;;6121785;23;20077;-80
2024/03/03 06:16:02;;;;;;;1999.90;999.90;;;;;;;;;;6121809;23;20028;-79
2024/03/03 06:18:30;;;;;;;1999.90;999.90;;;;;;;;;;6121794;23;20029;-79
2024/03/03 06:20:57;;;;;;;1999.90;999.90;;;;;;;;;;6122544;23;20025;-80
2024/03/03 06:23:25;;;;;;;1999.90;999.90;;;;;;;;;;6121635;23;20021;-80
2024/03/03 06:25:51;;;;;;;1999.90;999.90;;;;;;;;;;6121978;23;20101;-80
2024/03/03 06:28:17;;;;;;;1999.90;999.90;;;;;;;;;;6121233;23;20033;-80
2024/03/03 06:30:44;;;;;;;1999.90;999.90;;;;;;;;;;6121402;23;20030;-80
2024/03/03 06:33:11;;;;;;;1999.90;999.90;;;;;;;;;;6122007;23;20062;-80
2024/03/03 06:35:38;;;;;;;1999.90;999.90;;;;;;;;;;6121689;23;20018;-81
2024/03/03 06:38:05;;;;;;;1999.90;999.90;;;;;;;;;;6121919;23;20037;-80
2024/03/03 06:40:32;;;;;;;1999.90;999.90;;;;;;;;;;6121487;23;20022;-80
2024/03/03 06:42:59;;;;;;;1999.90;999.90;;;;;;;;;;6121800;23;20024;-79
2024/03/03 06:45:26;;;;;;;1999.90;999.90;;;;;;;;;;6121467;23;20021;-79
2024/03/03 06:47:53;;;;;;;1999.90;999.90;;;;;;;;;;6121544;23;20026;-79
2024/03/03 06:50:19;;;;;;;1999.90;999.90;;;;;;;;;;6120551;23;20030;-80
2024/03/03 06:52:46;;;;;;;1999.90;999.90;;;;;;;;;;6121364;23;20087;-80
2024/03/03 06:55:12;;;;;;;1999.90;999.90;;;;;;;;;;6121824;23;20353;-79
2024/03/03 06:57:40;;;;;;;1999.90;999.90;;;;;;;;;;6121594;23;20026;-81
2024/03/03 07:00:09;;;;;;;1999.90;999.90;;;;;;;;;;6121418;23;20404;-81
2024/03/03 07:05:15;;;;;;;1999.90;999.90;;;;;;;;;;6121038;23;20089;-79
2024/03/03 07:07:42;;;;;;;1999.90;999.90;;;;;;;;;;6121222;23;20045;-80
2024/03/03 07:10:10;;;;;;;1999.90;999.90;;;;;;;;;;6121018;23;20452;-79
2024/03/03 07:12:37;;;;;;;1999.90;999.90;;;;;;;;;;6121760;23;20330;-79
2024/03/03 07:15:06;;;;;;;1999.90;999.90;;;;;;;;;;6121252;23;20026;-80
2024/03/03 07:17:32;;;;;;;1999.90;999.90;;;;;;;;;;6121010;23;20523;-80
2024/03/03 07:20:01;;;;;;;1999.90;999.90;;;;;;;;;;6120520;23;20101;-79
2024/03/03 07:22:27;;;;;;;1999.90;999.90;;;;;;;;;;6120698;23;20044;-79
2024/03/03 07:24:54;;;;;;;1999.90;999.90;;;;;;;;;;6120793;23;20047;-79
2024/03/03 07:27:20;;;;;;;1999.90;999.90;;;;;;;;;;6120697;23;20032;-80
2024/03/03 07:29:47;;;;;;;1999.90;999.90;;;;;;;;;;6120517;23;20030;-81
2024/03/03 07:32:14;;;;;;;1999.90;999.90;;;;;;;;;;6120716;23;20022;-79
2024/03/03 07:34:43;;;;;;;1999.90;999.90;;;;;;;;;;6120872;23;20024;-79
2024/03/03 07:37:09;;;;;;;1999.90;999.90;;;;;;;;;;6120472;23;20018;-79
2024/03/03 07:39:36;;;;;;;1999.90;999.90;;;;;;;;;;6120549;23;20028;-79
2024/03/03 07:42:02;;;;;;;1999.90;999.90;;;;;;;;;;6119962;23;20030;-79
2024/03/03 07:44:29;;;;;;;1999.90;999.90;;;;;;;;;;6120184;23;20097;-80
2024/03/03 07:46:55;;;;;;;1999.90;999.90;;;;;;;;;;6120355;23;20376;-80
2024/03/03 07:49:23;;;;;;;1999.90;999.90;;;;;;;;;;6120112;23;20485;-79
2024/03/03 07:51:50;;;;;;;1999.90;999.90;;;;;;;;;;6120194;23;20022;-79
2024/03/03 07:54:16;;;;;;;1999.90;999.90;;;;;;;;;;6120406;23;20048;-79
2024/03/03 07:56:43;;;;;;;1999.90;999.90;;;;;;;;;;6120117;23;20026;-79
2024/03/03 07:59:10;;;;;;;1999.90;999.90;;;;;;;;;;6120186;23;20527;-79
2024/03/03 08:01:36;;;;;;;1999.90;999.90;;;;;;;;;;6120036;23;20025;-79
2024/03/03 08:04:03;;;;;;;1999.90;999.90;;;;;;;;;;6120604;23;20111;-79
2024/03/03 08:06:31;;;;;;;1999.90;999.90;;;;;;;;;;6120518;23;20114;-81
2024/03/03 08:09:01;;;;;;;1999.90;999.90;;;;;;;;;;6119937;23;20350;-79
2024/03/03 08:11:27;;;;;;;1999.90;999.90;;;;;;;;;;6118785;23;20022;-79
2024/03/03 08:13:54;;;;;;;1999.90;999.90;;;;;;;;;;6120213;23;20028;-79
2024/03/03 08:16:21;;;;;;;1999.90;999.90;;;;;;;;;;6119712;23;20385;-79
2024/03/03 08:18:48;;;;;;;1999.90;999.90;;;;;;;;;;6119949;23;20022;-79
2024/03/03 08:21:14;;;;;;;1999.90;999.90;;;;;;;;;;6119866;23;20025;-79
2024/03/03 08:23:43;;;;;;;1999.90;999.90;;;;;;;;;;6120123;23;20022;-79
2024/03/03 08:26:11;;;;;;;1999.90;999.90;;;;;;;;;;6120044;23;20032;-79
2024/03/03 08:28:37;;;;;;;1999.90;999.90;;;;;;;;;;6120020;23;20026;-80
2024/03/03 08:31:05;;;;;;;1999.90;999.90;;;;;;;;;;6120006;23;20024;-79
2024/03/03 08:33:32;;;;;;;1999.90;999.90;;;;;;;;;;6120041;23;20021;-80
2024/03/03 08:35:58;;;;;;;1999.90;999.90;;;;;;;;;;6120558;23;20086;-79
2024/03/03 08:38:25;;;;;;;1999.90;999.90;;;;;;;;;;6120142;23;20068;-79
2024/03/03 08:40:53;;;;;;;1999.90;999.90;;;;;;;;;;6120068;23;20021;-80
2024/03/03 08:43:19;;;;;;;1999.90;999.90;;;;;;;;;;6120096;23;20026;-79
2024/03/03 08:45:46;;;;;;;1999.90;999.90;;;;;;;;;;6120012;23;20032;-79
2024/03/03 08:48:12;;;;;;;1999.90;999.90;;;;;;;;;;6120068;23;20022;-80
2024/03/03 08:50:39;;;;;;;1999.90;999.90;;;;;;;;;;6119601;23;20083;-79
2024/03/03 08:53:07;;;;;;;1999.90;999.90;;;;;;;;;;6119616;23;20536;-80
2024/03/03 08:55:34;;;;;;;1999.90;999.90;;;;;;;;;;6119691;23;20022;-81
2024/03/03 08:58:02;;;;;;;1999.90;999.90;;;;;;;;;;6119465;23;20437;-79
2024/03/03 09:00:29;;;;;;;1999.90;999.90;;;;;;;;;;6119839;23;20025;-79
2024/03/03 09:02:55;;;;;;;1999.90;999.90;;;;;;;;;;6119358;23;20074;-79
2024/03/03 09:05:22;;;;;;;1999.90;999.90;;;;;;;;;;6119975;23;20032;-80
2024/03/03 09:07:48;;;;;;;1999.90;999.90;;;;;;;;;;6119401;23;20036;-79
2024/03/03 09:10:15;;;;;;;1999.90;999.90;;;;;;;;;;6119689;23;20026;-79
2024/03/03 09:12:41;;;;;;;1999.90;999.90;;;;;;;;;;6120453;23;20029;-79
2024/03/03 09:15:10;;;;;;;1999.90;999.90;;;;;;;;;;6122549;23;20017;-79
2024/03/03 09:17:36;;;;;;;1999.90;999.90;;;;;;;;;;6121671;23;20028;-80
2024/03/03 09:20:05;;;;;;;1999.90;999.90;;;;;;;;;;6122049;23;20053;-80
2024/03/03 09:22:32;;;;;;;1999.90;999.90;;;;;;;;;;6122267;23;20025;-80
2024/03/03 09:24:58;;;;;;;1999.90;999.90;;;;;;;;;;6122054;23;20022;-80
2024/03/03 09:27:25;;;;;;;1999.90;999.90;;;;;;;;;;6121488;23;20044;-81
2024/03/03 09:29:52;;;;;;;1999.90;999.90;;;;;;;;;;6121277;23;20022;-80
2024/03/03 09:32:20;;;;;;;1999.90;999.90;;;;;;;;;;6121220;23;20042;-79
2024/03/03 09:34:46;;;;;;;1999.90;999.90;;;;;;;;;;6121398;23;20484;-80
2024/03/03 09:37:13;;;;;;;1999.90;999.90;;;;;;;;;;6121569;23;20032;-79
2024/03/03 09:39:39;;;;;;;1999.90;999.90;;;;;;;;;;6121671;23;20361;-80
2024/03/03 09:42:06;;;;;;;1999.90;999.90;;;;;;;;;;6120928;23;20491;-79
2024/03/03 09:44:41;;;;;;;1999.90;999.90;;;;;;;;;;6120862;23;20476;-81
2024/03/03 09:47:08;;;;;;;1999.90;999.90;;;;;;;;;;6121088;23;20022;-79
2024/03/03 09:49:39;;;;;;;1999.90;999.90;;;;;;;;;;6120555;23;20026;-79
2024/03/03 09:52:09;;;;;;;1999.90;999.90;;;;;;;;;;6120921;23;20022;-80
2024/03/03 09:54:39;;;;;;;1999.90;999.90;;;;;;;;;;6121591;23;20022;-80
2024/03/03 09:57:12;;;;;;;1999.90;999.90;;;;;;;;;;6121300;23;20022;-80
2024/03/03 09:59:39;;;;;;;1999.90;999.90;;;;;;;;;;6120607;23;20127;-80
2024/03/03 10:02:11;;;;;;;1999.90;999.90;;;;;;;;;;6120145;23;20484;-81
2024/03/03 10:04:41;;;;;;;1999.90;999.90;;;;;;;;;;6120322;23;20026;-79
2024/03/03 10:07:09;;;;;;;1999.90;999.90;;;;;;;;;;6120524;23;20029;-79
2024/03/03 10:09:37;;;;;;;1999.90;999.90;;;;;;;;;;6120803;23;20092;-79
2024/03/03 10:12:09;;;;;;;1999.90;999.90;;;;;;;;;;6120425;23;20028;-81
2024/03/03 10:14:37;;;;;;;1999.90;999.90;;;;;;;;;;6120994;23;20267;-80
2024/03/03 10:17:06;;;;;;;1999.90;999.90;;;;;;;;;;6119194;23;20018;-80
2024/03/03 10:19:32;;;;;;;1999.90;999.90;;;;;;;;;;6121033;23;20026;-79
2024/03/03 10:22:00;;;;;;;1999.90;999.90;;;;;;;;;;6120610;23;20026;-80
2024/03/03 10:24:29;;;;;;;1999.90;999.90;;;;;;;;;;6120085;23;20026;-80
2024/03/03 10:26:57;;;;;;;1999.90;999.90;;;;;;;;;;6120343;23;20026;-80
2024/03/03 10:29:25;;;;;;;1999.90;999.90;;;;;;;;;;6120500;23;20101;-81
2024/03/03 10:31:52;;;;;;;1999.90;999.90;;;;;;;;;;6120345;23;20021;-81
2024/03/03 10:34:20;;;;;;;1999.90;999.90;;;;;;;;;;6120321;23;20033;-80
2024/03/03 10:36:47;;;;;;;1999.90;999.90;;;;;;;;;;6120219;23;20064;-81
2024/03/03 10:39:16;;;;;;;1999.90;999.90;;;;;;;;;;6120206;23;20028;-81
2024/03/03 10:41:42;;;;;;;1999.90;999.90;;;;;;;;;;6120553;23;20088;-80
2024/03/03 10:44:09;;;;;;;1999.90;999.90;;;;;;;;;;6119931;23;20021;-81
2024/03/03 10:46:37;;;;;;;1999.90;999.90;;;;;;;;;;6120303;23;20022;-80
2024/03/03 10:49:03;;;;;;;1999.90;999.90;;;;;;;;;;6120230;23;20026;-80
2024/03/03 10:51:30;;;;;;;1999.90;999.90;;;;;;;;;;6120482;23;20049;-80
2024/03/03 10:53:59;;;;;;;1999.90;999.90;;;;;;;;;;6120215;23;20402;-80
2024/03/03 10:56:30;;;;;;;1999.90;999.90;;;;;;;;;;6119724;23;20049;-80
2024/03/03 10:58:58;;;;;;;1999.90;999.90;;;;;;;;;;6120731;23;20028;-80
2024/03/03 11:01:25;;;;;;;1999.90;999.90;;;;;;;;;;6120183;23;20650;-80
2024/03/03 11:03:53;;;;;;;1999.90;999.90;;;;;;;;;;6120241;23;20022;-81
2024/03/03 11:06:20;;;;;;;1999.90;999.90;;;;;;;;;;6119961;23;20073;-80
2024/03/03 11:08:51;;;;;;;1999.90;999.90;;;;;;;;;;6119850;23;20025;-81
2024/03/03 11:11:22;;;;;;;1999.90;999.90;;;;;;;;;;6120653;23;20022;-80
2024/03/03 11:13:56;;;;;;;1999.90;999.90;;;;;;;;;;6121049;23;20025;-80
2024/03/03 11:16:27;;;;;;;1999.90;999.90;;;;;;;;;;6121034;23;20029;-80
2024/03/03 11:18:57;;;;;;;1999.90;999.90;;;;;;;;;;6120860;23;20032;-80
2024/03/03 11:21:28;;;;;;;1999.90;999.90;;;;;;;;;;6120955;23;20022;-80
2024/03/03 11:23:59;;;;;;;1999.90;999.90;;;;;;;;;;6121015;23;20021;-80
2024/03/03 11:26:31;;;;;;;1999.90;999.90;;;;;;;;;;6121216;23;20032;-80
2024/03/03 11:29:00;;;;;;;1999.90;999.90;;;;;;;;;;6121067;23;20036;-80
2024/03/03 11:31:28;;;;;;;1999.90;999.90;;;;;;;;;;6120967;23;20018;-82
2024/03/03 11:33:56;;;;;;;1999.90;999.90;;;;;;;;;;6121218;23;20025;-80
2024/03/03 11:36:23;;;;;;;1999.90;999.90;;;;;;;;;;6120331;23;20459;-80
2024/03/03 11:38:49;;;;;;;1999.90;999.90;;;;;;;;;;6120961;23;20025;-80
2024/03/03 11:41:19;;;;;;;1999.90;999.90;;;;;;;;;;6120796;23;20022;-79
2024/03/03 11:43:46;;;;;;;1999.90;999.90;;;;;;;;;;6120330;23;20018;-80
2024/03/03 11:46:45;;;;;;;1999.90;999.90;;;;;;;;;;6120730;23;20022;-80
2024/03/03 11:49:12;;;;;;;1999.90;999.90;;;;;;;;;;6121076;23;20026;-81
2024/03/03 11:51:38;;;;;;;1999.90;999.90;;;;;;;;;;6120774;23;20022;-79
2024/03/03 11:54:06;;;;;;;1999.90;999.90;;;;;;;;;;6120243;23;20554;-80
2024/03/03 11:56:45;;;;;;;1999.90;999.90;;;;;;;;;;6121199;23;20032;-80
2024/03/03 11:59:11;;;;;;;1999.90;999.90;;;;;;;;;;6120325;23;20029;-80
2024/03/03 12:01:42;;;;;;;1999.90;999.90;;;;;;;;;;6119890;23;20540;-80
2024/03/03 12:04:09;;;;;;;1999.90;999.90;;;;;;;;;;6120574;23;20033;-80
2024/03/03 12:06:36;;;;;;;1999.90;999.90;;;;;;;;;;6120599;23;20028;-80
2024/03/03 12:09:07;;;;;;;1999.90;999.90;;;;;;;;;;6120585;23;20141;-81
2024/03/03 12:11:34;;;;;;;1999.90;999.90;;;;;;;;;;6120336;23;20313;-81
2024/03/03 12:14:00;;;;;;;1999.90;999.90;;;;;;;;;;6120645;23;20026;-80
2024/03/03 12:16:27;;;;;;;1999.90;999.90;;;;;;;;;;6120626;23;20101;-81
2024/03/03 12:18:55;;;;;;;1999.90;999.90;;;;;;;;;;6120000;23;20476;-81
2024/03/03 12:21:23;;;;;;;1999.90;999.90;;;;;;;;;;6120614;23;20320;-80
2024/03/03 12:23:49;;;;;;;1999.90;999.90;;;;;;;;;;6119974;23;20105;-80
2024/03/03 12:26:18;;;;;;;1999.90;999.90;;;;;;;;;;6120404;23;20044;-82
2024/03/03 12:28:44;;;;;;;1999.90;999.90;;;;;;;;;;6120213;23;20487;-80
2024/03/03 12:31:11;;;;;;;1999.90;999.90;;;;;;;;;;6120096;23;20022;-80
2024/03/03 12:33:40;;;;;;;1999.90;999.90;;;;;;;;;;6120489;23;20030;-81
2024/03/03 12:36:08;;;;;;;1999.90;999.90;;;;;;;;;;6120079;23;20053;-81
2024/03/03 12:38:35;;;;;;;1999.90;999.90;;;;;;;;;;6119956;23;20029;-81
2024/03/03 12:41:03;;;;;;;1999.90;999.90;;;;;;;;;;6120279;23;20121;-81
2024/03/03 12:43:30;;;;;;;1999.90;999.90;;;;;;;;;;6120715;23;20022;-80
2024/03/03 12:45:57;;;;;;;1999.90;999.90;;;;;;;;;;6119804;23;20056;-81
2024/03/03 12:48:24;;;;;;;1999.90;999.90;;;;;;;;;;6120194;23;20337;-81
2024/03/03 12:50:56;;;;;;;1999.90;999.90;;;;;;;;;;6120950;23;20122;-80
2024/03/03 12:53:24;;;;;;;1999.90;999.90;;;;;;;;;;6121353;23;20081;-80
2024/03/03 12:55:51;;;;;;;1999.90;999.90;;;;;;;;;;6121083;23;20405;-80
2024/03/03 12:58:17;;;;;;;1999.90;999.90;;;;;;;;;;6121408;23;20021;-80
2024/03/03 13:00:45;;;;;;;1999.90;999.90;;;;;;;;;;6121093;23;20026;-80
2024/03/03 13:03:11;;;;;;;1999.90;999.90;;;;;;;;;;6121227;23;20034;-80
2024/03/03 13:05:38;;;;;;;1999.90;999.90;;;;;;;;;;6121345;23;20029;-80
2024/03/03 13:08:05;;;;;;;1999.90;999.90;;;;;;;;;;6121471;23;20022;-80
2024/03/03 13:10:35;;;;;;;1999.90;999.90;;;;;;;;;;6120678;23;20537;-80
2024/03/03 13:13:01;;;;;;;1999.90;999.90;;;;;;;;;;6121419;23;20018;-80
2024/03/03 13:15:29;;;;;;;1999.90;999.90;;;;;;;;;;6121004;23;20034;-80
2024/03/03 13:18:04;;;;;;;1999.90;999.90;;;;;;;;;;6121005;23;20025;-80
2024/03/03 13:20:32;;;;;;;1999.90;999.90;;;;;;;;;;6121188;23;20415;-81
2024/03/03 13:23:09;;;;;;;1999.90;999.90;;;;;;;;;;6120720;23;20037;-80
2024/03/03 13:25:37;;;;;;;1999.90;999.90;;;;;;;;;;6121272;23;20037;-80
2024/03/03 13:28:05;;;;;;;1999.90;999.90;;;;;;;;;;6120745;23;20449;-81
2024/03/03 13:30:32;;;;;;;1999.90;999.90;;;;;;;;;;6121230;23;20029;-81
2024/03/03 13:32:58;;;;;;;1999.90;999.90;;;;;;;;;;6121409;23;20028;-80
2024/03/03 13:35:25;;;;;;;1999.90;999.90;;;;;;;;;;6120984;23;20364;-78
2024/03/03 13:37:51;;;;;;;1999.90;999.90;;;;;;;;;;6120995;23;20393;-78
2024/03/03 13:40:18;;;;;;;1999.90;999.90;;;;;;;;;;6121367;23;20026;-78
2024/03/03 13:42:46;;;;;;;1999.90;999.90;;;;;;;;;;6121129;23;20025;-78
2024/03/03 13:45:12;;;;;;;1999.90;999.90;;;;;;;;;;6120826;23;20437;-78